Terminal Aerodrome Forecast
Issued by NWS Spokane, WA

Home | Current Version | Previous Version | Text Only | Print | Product List | Glossary On
Versions: 1 2 3 4 5 6 7 8 9 10 11 12 13 14 15 16 17 18 19 20 21 22 23 24 25 26 27 28
000
FTUS46 KOTX 270523
TAFEAT
TAF
KEAT 270523Z 2706/2806 00000KT P6SM OVC250
     FM270600 00000KT P6SM OVC050
     FM271600 00000KT 5SM BR VCSH SCT010 OVC030
     FM272100 23004KT P6SM BKN050
     FM280000 30008KT P6SM SCT060 BKN100=

USA.gov is the U.S. government's official web portal to all federal, state and local government web resources and services.